Sprimont, Belgium
Current Conditions -  °F | °C
As of 6:20 AM on Friday 28 Nov 2014 (Local Time) from EBLG Reporting Station
Clear Clear  
Wind Chill: 50°   Ceiling: Unl
Heat Index: 50°   Visibility: 6mi
Dew Point: 43°   Wind: 9mph
Humidity: 76%   Direction: 140°SE
Pressure: 29.68"   Gusts: NA
Location:  50.51°N, 5.66°E
Report Text: EBLG 280520Z 14008KT CAVOK 10/06 Q1005 NOSIG
Loading
Personal Weather Stations






























Interactive Weather Map New forecast layout! Learn more

10-Day Weather Forecast

Advertisements
Track Severe Weather on mobile